sensor_id;sensor_type;location;lat;lon;timestamp;P1;durP1;ratioP1;P2;durP2;ratioP2
1136;SDS011;557;48.466;7.950;2023-05-10T00:00:57;2.53;;;1.70;;
1136;SDS011;557;48.466;7.950;2023-05-10T00:03:45;4.10;;;1.83;;
1136;SDS011;557;48.466;7.950;2023-05-10T00:06:32;2.43;;;1.40;;
1136;SDS011;557;48.466;7.950;2023-05-10T00:09:19;2.70;;;1.57;;
1136;SDS011;557;48.466;7.950;2023-05-10T00:12:06;2.20;;;1.40;;
1136;SDS011;557;48.466;7.950;2023-05-10T00:14:55;2.47;;;1.60;;
1136;SDS011;557;48.466;7.950;2023-05-10T00:17:42;3.30;;;1.40;;
1136;SDS011;557;48.466;7.950;2023-05-10T00:20:29;3.50;;;1.70;;
1136;SDS011;557;48.466;7.950;2023-05-10T00:23:17;2.20;;;1.50;;
1136;SDS011;557;48.466;7.950;2023-05-10T00:26:04;1.90;;;1.43;;
1136;SDS011;557;48.466;7.950;2023-05-10T00:28:51;2.70;;;1.93;;
1136;SDS011;557;48.466;7.950;2023-05-10T00:31:40;3.80;;;1.80;;
1136;SDS011;557;48.466;7.950;2023-05-10T00:34:27;7.23;;;1.70;;
1136;SDS011;557;48.466;7.950;2023-05-10T00:37:15;2.80;;;2.13;;
1136;SDS011;557;48.466;7.950;2023-05-10T00:40:02;4.80;;;1.67;;
1136;SDS011;557;48.466;7.950;2023-05-10T00:42:50;3.97;;;1.90;;
1136;SDS011;557;48.466;7.950;2023-05-10T00:45:37;2.63;;;1.60;;
1136;SDS011;557;48.466;7.950;2023-05-10T00:48:29;2.13;;;1.30;;
1136;SDS011;557;48.466;7.950;2023-05-10T00:51:16;2.07;;;1.20;;
1136;SDS011;557;48.466;7.950;2023-05-10T00:54:04;4.37;;;1.50;;
1136;SDS011;557;48.466;7.950;2023-05-10T00:56:52;2.37;;;1.33;;
1136;SDS011;557;48.466;7.950;2023-05-10T00:59:39;2.43;;;1.53;;
1136;SDS011;557;48.466;7.950;2023-05-10T01:02:26;2.57;;;1.40;;
1136;SDS011;557;48.466;7.950;2023-05-10T01:05:15;3.70;;;1.50;;
1136;SDS011;557;48.466;7.950;2023-05-10T01:08:03;2.47;;;1.47;;
1136;SDS011;557;48.466;7.950;2023-05-10T01:10:50;2.40;;;1.30;;
1136;SDS011;557;48.466;7.950;2023-05-10T01:13:38;2.20;;;1.20;;
1136;SDS011;557;48.466;7.950;2023-05-10T01:16:28;2.43;;;1.20;;
1136;SDS011;557;48.466;7.950;2023-05-10T01:19:19;1.90;;;1.30;;
1136;SDS011;557;48.466;7.950;2023-05-10T01:22:16;2.30;;;1.23;;
1136;SDS011;557;48.466;7.950;2023-05-10T01:25:22;1.67;;;0.90;;
1136;SDS011;557;48.466;7.950;2023-05-10T01:31:59;2.70;;;1.27;;
1136;SDS011;557;48.466;7.950;2023-05-10T01:35:00;2.00;;;1.40;;
1136;SDS011;557;48.466;7.950;2023-05-10T01:37:50;1.77;;;1.00;;
1136;SDS011;557;48.466;7.950;2023-05-10T01:40:48;2.00;;;1.03;;
1136;SDS011;557;48.466;7.950;2023-05-10T01:43:55;1.83;;;1.23;;
1136;SDS011;557;48.466;7.950;2023-05-10T01:46:49;2.60;;;1.13;;
1136;SDS011;557;48.466;7.950;2023-05-10T01:49:41;1.90;;;1.30;;
1136;SDS011;557;48.466;7.950;2023-05-10T01:52:33;2.10;;;1.30;;
1136;SDS011;557;48.466;7.950;2023-05-10T01:55:26;1.93;;;1.10;;
1136;SDS011;557;48.466;7.950;2023-05-10T01:58:17;1.90;;;1.10;;
1136;SDS011;557;48.466;7.950;2023-05-10T02:01:07;2.53;;;1.20;;
1136;SDS011;557;48.466;7.950;2023-05-10T02:03:56;1.80;;;1.10;;
1136;SDS011;557;48.466;7.950;2023-05-10T02:06:46;2.03;;;1.13;;
1136;SDS011;557;48.466;7.950;2023-05-10T02:09:35;1.90;;;1.00;;
1136;SDS011;557;48.466;7.950;2023-05-10T02:12:24;2.00;;;1.17;;
1136;SDS011;557;48.466;7.950;2023-05-10T02:15:15;2.33;;;1.20;;
1136;SDS011;557;48.466;7.950;2023-05-10T02:18:05;1.97;;;1.10;;
1136;SDS011;557;48.466;7.950;2023-05-10T02:20:54;2.63;;;1.10;;
1136;SDS011;557;48.466;7.950;2023-05-10T02:23:44;2.70;;;1.00;;
1136;SDS011;557;48.466;7.950;2023-05-10T02:26:32;3.40;;;1.40;;
1136;SDS011;557;48.466;7.950;2023-05-10T02:29:21;2.57;;;1.30;;
1136;SDS011;557;48.466;7.950;2023-05-10T02:32:09;3.83;;;1.40;;
1136;SDS011;557;48.466;7.950;2023-05-10T02:34:57;2.90;;;1.40;;
1136;SDS011;557;48.466;7.950;2023-05-10T02:37:46;1.90;;;1.20;;
1136;SDS011;557;48.466;7.950;2023-05-10T02:40:36;3.37;;;1.20;;
1136;SDS011;557;48.466;7.950;2023-05-10T02:43:24;2.30;;;1.07;;
1136;SDS011;557;48.466;7.950;2023-05-10T02:46:12;1.97;;;1.10;;
1136;SDS011;557;48.466;7.950;2023-05-10T02:48:59;1.60;;;1.00;;
1136;SDS011;557;48.466;7.950;2023-05-10T02:51:49;1.83;;;1.17;;
1136;SDS011;557;48.466;7.950;2023-05-10T02:54:41;2.00;;;1.03;;
1136;SDS011;557;48.466;7.950;2023-05-10T02:57:33;4.80;;;1.23;;
1136;SDS011;557;48.466;7.950;2023-05-10T03:00:21;2.40;;;1.17;;
1136;SDS011;557;48.466;7.950;2023-05-10T03:03:08;1.47;;;0.90;;
1136;SDS011;557;48.466;7.950;2023-05-10T03:05:56;2.70;;;1.40;;
1136;SDS011;557;48.466;7.950;2023-05-10T03:08:44;1.67;;;1.00;;
1136;SDS011;557;48.466;7.950;2023-05-10T03:11:39;2.30;;;1.13;;
1136;SDS011;557;48.466;7.950;2023-05-10T03:14:42;2.37;;;1.20;;
1136;SDS011;557;48.466;7.950;2023-05-10T03:17:36;1.90;;;0.90;;
1136;SDS011;557;48.466;7.950;2023-05-10T03:20:33;2.20;;;1.20;;
1136;SDS011;557;48.466;7.950;2023-05-10T03:23:27;2.07;;;1.10;;
1136;SDS011;557;48.466;7.950;2023-05-10T03:26:24;2.30;;;1.50;;
1136;SDS011;557;48.466;7.950;2023-05-10T03:29:13;2.00;;;1.50;;
1136;SDS011;557;48.466;7.950;2023-05-10T03:32:03;2.47;;;1.30;;
1136;SDS011;557;48.466;7.950;2023-05-10T03:34:51;2.50;;;1.57;;
1136;SDS011;557;48.466;7.950;2023-05-10T03:37:38;2.77;;;1.40;;
1136;SDS011;557;48.466;7.950;2023-05-10T03:40:25;3.73;;;1.67;;
1136;SDS011;557;48.466;7.950;2023-05-10T03:43:14;3.67;;;2.00;;
1136;SDS011;557;48.466;7.950;2023-05-10T03:46:01;3.17;;;1.83;;
1136;SDS011;557;48.466;7.950;2023-05-10T03:48:50;3.50;;;1.90;;
1136;SDS011;557;48.466;7.950;2023-05-10T03:51:37;2.90;;;1.77;;
1136;SDS011;557;48.466;7.950;2023-05-10T03:54:25;2.40;;;1.70;;
1136;SDS011;557;48.466;7.950;2023-05-10T03:57:12;2.57;;;1.83;;
1136;SDS011;557;48.466;7.950;2023-05-10T04:02:50;1.97;;;1.40;;
1136;SDS011;557;48.466;7.950;2023-05-10T04:05:38;2.70;;;1.63;;
1136;SDS011;557;48.466;7.950;2023-05-10T04:08:26;4.70;;;2.40;;
1136;SDS011;557;48.466;7.950;2023-05-10T04:11:14;4.00;;;2.30;;
1136;SDS011;557;48.466;7.950;2023-05-10T04:14:01;2.10;;;1.40;;
1136;SDS011;557;48.466;7.950;2023-05-10T04:16:49;2.63;;;1.63;;
1136;SDS011;557;48.466;7.950;2023-05-10T04:19:36;3.60;;;1.53;;
1136;SDS011;557;48.466;7.950;2023-05-10T04:22:25;2.27;;;1.50;;
1136;SDS011;557;48.466;7.950;2023-05-10T04:25:13;2.23;;;1.77;;
1136;SDS011;557;48.466;7.950;2023-05-10T04:28:00;3.80;;;2.20;;
1136;SDS011;557;48.466;7.950;2023-05-10T04:30:47;2.30;;;1.50;;
1136;SDS011;557;48.466;7.950;2023-05-10T04:33:35;2.37;;;1.43;;
1136;SDS011;557;48.466;7.950;2023-05-10T04:36:24;3.60;;;1.83;;
1136;SDS011;557;48.466;7.950;2023-05-10T04:39:12;2.33;;;1.57;;
1136;SDS011;557;48.466;7.950;2023-05-10T04:42:00;2.20;;;1.50;;
1136;SDS011;557;48.466;7.950;2023-05-10T04:44:48;2.87;;;1.60;;
1136;SDS011;557;48.466;7.950;2023-05-10T04:47:35;2.23;;;1.60;;
1136;SDS011;557;48.466;7.950;2023-05-10T04:50:23;2.50;;;1.80;;
1136;SDS011;557;48.466;7.950;2023-05-10T04:53:10;2.27;;;1.70;;
1136;SDS011;557;48.466;7.950;2023-05-10T04:55:59;2.70;;;1.67;;
1136;SDS011;557;48.466;7.950;2023-05-10T04:58:46;2.13;;;1.20;;
1136;SDS011;557;48.466;7.950;2023-05-10T05:01:35;2.20;;;1.60;;
1136;SDS011;557;48.466;7.950;2023-05-10T05:04:22;2.47;;;1.57;;
1136;SDS011;557;48.466;7.950;2023-05-10T05:07:09;2.43;;;1.70;;
1136;SDS011;557;48.466;7.950;2023-05-10T05:09:57;2.50;;;1.73;;
1136;SDS011;557;48.466;7.950;2023-05-10T05:12:45;2.63;;;1.67;;
1136;SDS011;557;48.466;7.950;2023-05-10T05:15:33;2.50;;;1.67;;
1136;SDS011;557;48.466;7.950;2023-05-10T05:18:20;2.93;;;1.73;;
1136;SDS011;557;48.466;7.950;2023-05-10T05:21:13;3.30;;;2.30;;
1136;SDS011;557;48.466;7.950;2023-05-10T05:24:01;2.83;;;2.17;;
1136;SDS011;557;48.466;7.950;2023-05-10T05:26:49;5.17;;;2.63;;
1136;SDS011;557;48.466;7.950;2023-05-10T05:29:38;3.43;;;2.13;;
1136;SDS011;557;48.466;7.950;2023-05-10T05:32:25;2.90;;;2.13;;
1136;SDS011;557;48.466;7.950;2023-05-10T05:35:12;3.80;;;2.37;;
1136;SDS011;557;48.466;7.950;2023-05-10T05:38:00;2.93;;;1.93;;
1136;SDS011;557;48.466;7.950;2023-05-10T05:40:47;3.17;;;2.30;;
1136;SDS011;557;48.466;7.950;2023-05-10T05:43:35;5.00;;;2.43;;
1136;SDS011;557;48.466;7.950;2023-05-10T05:46:23;2.90;;;2.03;;
1136;SDS011;557;48.466;7.950;2023-05-10T05:49:11;3.60;;;2.33;;
1136;SDS011;557;48.466;7.950;2023-05-10T05:51:59;3.93;;;2.57;;
1136;SDS011;557;48.466;7.950;2023-05-10T05:54:47;4.17;;;2.80;;
1136;SDS011;557;48.466;7.950;2023-05-10T05:57:34;4.00;;;2.70;;
1136;SDS011;557;48.466;7.950;2023-05-10T06:00:21;3.63;;;3.30;;
1136;SDS011;557;48.466;7.950;2023-05-10T06:03:10;5.70;;;3.23;;
1136;SDS011;557;48.466;7.950;2023-05-10T06:05:57;3.63;;;3.23;;
1136;SDS011;557;48.466;7.950;2023-05-10T06:08:44;4.53;;;2.70;;
1136;SDS011;557;48.466;7.950;2023-05-10T06:11:32;4.27;;;3.37;;
1136;SDS011;557;48.466;7.950;2023-05-10T06:14:19;3.10;;;2.47;;
1136;SDS011;557;48.466;7.950;2023-05-10T06:17:07;4.47;;;3.17;;
1136;SDS011;557;48.466;7.950;2023-05-10T06:19:56;5.27;;;3.23;;
1136;SDS011;557;48.466;7.950;2023-05-10T06:22:43;5.23;;;3.50;;
1136;SDS011;557;48.466;7.950;2023-05-10T06:25:31;3.70;;;3.10;;
1136;SDS011;557;48.466;7.950;2023-05-10T06:28:18;4.13;;;2.67;;
1136;SDS011;557;48.466;7.950;2023-05-10T06:31:05;2.83;;;2.43;;
1136;SDS011;557;48.466;7.950;2023-05-10T06:33:53;3.00;;;2.60;;
1136;SDS011;557;48.466;7.950;2023-05-10T06:36:41;3.80;;;2.80;;
1136;SDS011;557;48.466;7.950;2023-05-10T06:39:29;5.30;;;2.50;;
1136;SDS011;557;48.466;7.950;2023-05-10T06:42:16;4.10;;;2.33;;
1136;SDS011;557;48.466;7.950;2023-05-10T06:45:03;3.80;;;2.30;;
1136;SDS011;557;48.466;7.950;2023-05-10T06:47:51;2.80;;;2.00;;
1136;SDS011;557;48.466;7.950;2023-05-10T06:50:39;2.90;;;2.10;;
1136;SDS011;557;48.466;7.950;2023-05-10T06:53:27;3.83;;;1.93;;
1136;SDS011;557;48.466;7.950;2023-05-10T06:56:15;2.47;;;1.87;;
1136;SDS011;557;48.466;7.950;2023-05-10T06:59:02;2.30;;;1.90;;
1136;SDS011;557;48.466;7.950;2023-05-10T07:01:49;2.37;;;1.67;;
1136;SDS011;557;48.466;7.950;2023-05-10T07:04:37;4.67;;;2.10;;
1136;SDS011;557;48.466;7.950;2023-05-10T07:07:24;2.60;;;1.83;;
1136;SDS011;557;48.466;7.950;2023-05-10T07:10:13;2.60;;;1.70;;
1136;SDS011;557;48.466;7.950;2023-05-10T07:13:00;4.53;;;2.17;;
1136;SDS011;557;48.466;7.950;2023-05-10T07:15:47;2.97;;;2.20;;
1136;SDS011;557;48.466;7.950;2023-05-10T07:18:35;2.90;;;2.10;;
1136;SDS011;557;48.466;7.950;2023-05-10T07:21:22;4.60;;;1.87;;
1136;SDS011;557;48.466;7.950;2023-05-10T07:24:10;2.73;;;1.77;;
1136;SDS011;557;48.466;7.950;2023-05-10T07:26:59;6.47;;;2.47;;
1136;SDS011;557;48.466;7.950;2023-05-10T07:29:46;2.57;;;1.80;;
1136;SDS011;557;48.466;7.950;2023-05-10T07:32:34;2.93;;;1.97;;
1136;SDS011;557;48.466;7.950;2023-05-10T07:35:21;2.97;;;1.70;;
1136;SDS011;557;48.466;7.950;2023-05-10T07:38:08;2.57;;;1.77;;
1136;SDS011;557;48.466;7.950;2023-05-10T07:40:57;2.87;;;1.80;;
1136;SDS011;557;48.466;7.950;2023-05-10T07:43:45;4.37;;;2.00;;
1136;SDS011;557;48.466;7.950;2023-05-10T07:46:32;2.53;;;1.60;;
1136;SDS011;557;48.466;7.950;2023-05-10T07:49:20;2.37;;;1.83;;
1136;SDS011;557;48.466;7.950;2023-05-10T07:52:09;3.23;;;1.87;;
1136;SDS011;557;48.466;7.950;2023-05-10T07:54:57;3.30;;;1.30;;
1136;SDS011;557;48.466;7.950;2023-05-10T07:57:44;3.07;;;1.70;;
1136;SDS011;557;48.466;7.950;2023-05-10T08:00:33;2.33;;;1.33;;
1136;SDS011;557;48.466;7.950;2023-05-10T08:03:21;6.00;;;2.20;;
1136;SDS011;557;48.466;7.950;2023-05-10T08:06:08;2.73;;;1.80;;
1136;SDS011;557;48.466;7.950;2023-05-10T08:08:55;2.27;;;1.60;;
1136;SDS011;557;48.466;7.950;2023-05-10T08:11:43;3.70;;;2.17;;
1136;SDS011;557;48.466;7.950;2023-05-10T08:14:30;2.50;;;1.90;;
1136;SDS011;557;48.466;7.950;2023-05-10T08:17:19;4.00;;;2.07;;
1136;SDS011;557;48.466;7.950;2023-05-10T08:20:06;4.40;;;2.03;;
1136;SDS011;557;48.466;7.950;2023-05-10T08:22:54;2.27;;;1.27;;
1136;SDS011;557;48.466;7.950;2023-05-10T08:25:41;1.77;;;1.00;;
1136;SDS011;557;48.466;7.950;2023-05-10T08:28:28;2.00;;;1.30;;
1136;SDS011;557;48.466;7.950;2023-05-10T08:31:16;1.80;;;1.03;;
1136;SDS011;557;48.466;7.950;2023-05-10T08:34:04;1.70;;;1.10;;
1136;SDS011;557;48.466;7.950;2023-05-10T08:36:52;3.27;;;1.57;;
1136;SDS011;557;48.466;7.950;2023-05-10T08:39:41;1.93;;;1.40;;
1136;SDS011;557;48.466;7.950;2023-05-10T08:42:29;1.70;;;1.13;;
1136;SDS011;557;48.466;7.950;2023-05-10T08:45:19;4.90;;;1.20;;
1136;SDS011;557;48.466;7.950;2023-05-10T08:48:09;1.30;;;0.60;;
1136;SDS011;557;48.466;7.950;2023-05-10T08:50:59;3.10;;;1.10;;
1136;SDS011;557;48.466;7.950;2023-05-10T08:53:48;1.67;;;0.77;;
1136;SDS011;557;48.466;7.950;2023-05-10T08:56:35;2.70;;;0.97;;
1136;SDS011;557;48.466;7.950;2023-05-10T08:59:23;3.20;;;1.13;;
1136;SDS011;557;48.466;7.950;2023-05-10T09:02:11;2.20;;;1.10;;
1136;SDS011;557;48.466;7.950;2023-05-10T09:04:59;1.53;;;0.90;;
1136;SDS011;557;48.466;7.950;2023-05-10T09:07:49;1.50;;;0.80;;
1136;SDS011;557;48.466;7.950;2023-05-10T09:10:37;1.60;;;0.83;;
1136;SDS011;557;48.466;7.950;2023-05-10T09:13:26;1.53;;;0.93;;
1136;SDS011;557;48.466;7.950;2023-05-10T09:16:14;1.40;;;0.80;;
1136;SDS011;557;48.466;7.950;2023-05-10T09:19:01;1.60;;;0.97;;
1136;SDS011;557;48.466;7.950;2023-05-10T09:21:49;2.87;;;0.93;;
1136;SDS011;557;48.466;7.950;2023-05-10T09:24:37;2.00;;;1.00;;
1136;SDS011;557;48.466;7.950;2023-05-10T09:27:38;1.87;;;1.03;;
1136;SDS011;557;48.466;7.950;2023-05-10T09:30:27;1.80;;;1.00;;
1136;SDS011;557;48.466;7.950;2023-05-10T09:33:15;1.80;;;0.90;;
1136;SDS011;557;48.466;7.950;2023-05-10T09:36:08;2.83;;;1.50;;
1136;SDS011;557;48.466;7.950;2023-05-10T09:38:55;2.70;;;0.83;;
1136;SDS011;557;48.466;7.950;2023-05-10T09:41:45;1.97;;;0.90;;
1136;SDS011;557;48.466;7.950;2023-05-10T09:44:34;3.10;;;1.10;;
1136;SDS011;557;48.466;7.950;2023-05-10T09:50:14;2.07;;;1.07;;
1136;SDS011;557;48.466;7.950;2023-05-10T09:53:02;2.73;;;0.90;;
1136;SDS011;557;48.466;7.950;2023-05-10T09:55:50;1.53;;;0.70;;
1136;SDS011;557;48.466;7.950;2023-05-10T09:58:38;2.97;;;1.30;;
1136;SDS011;557;48.466;7.950;2023-05-10T10:01:26;1.50;;;0.90;;
1136;SDS011;557;48.466;7.950;2023-05-10T10:04:19;2.23;;;1.20;;
1136;SDS011;557;48.466;7.950;2023-05-10T10:07:07;1.90;;;1.10;;
1136;SDS011;557;48.466;7.950;2023-05-10T10:09:54;2.73;;;1.30;;
1136;SDS011;557;48.466;7.950;2023-05-10T10:12:42;1.50;;;1.00;;
1136;SDS011;557;48.466;7.950;2023-05-10T10:15:31;1.90;;;1.23;;
1136;SDS011;557;48.466;7.950;2023-05-10T10:18:20;2.93;;;1.40;;
1136;SDS011;557;48.466;7.950;2023-05-10T10:21:14;2.37;;;1.33;;
1136;SDS011;557;48.466;7.950;2023-05-10T10:24:03;2.60;;;1.20;;
1136;SDS011;557;48.466;7.950;2023-05-10T10:26:51;1.80;;;1.30;;
1136;SDS011;557;48.466;7.950;2023-05-10T10:29:43;2.33;;;1.23;;
1136;SDS011;557;48.466;7.950;2023-05-10T10:35:48;2.03;;;1.13;;
1136;SDS011;557;48.466;7.950;2023-05-10T10:38:36;2.13;;;1.40;;
1136;SDS011;557;48.466;7.950;2023-05-10T10:41:49;1.70;;;1.43;;
1136;SDS011;557;48.466;7.950;2023-05-10T10:44:37;2.20;;;2.00;;
1136;SDS011;557;48.466;7.950;2023-05-10T10:47:27;2.30;;;2.10;;
1136;SDS011;557;48.466;7.950;2023-05-10T10:50:19;3.03;;;2.73;;
1136;SDS011;557;48.466;7.950;2023-05-10T10:53:10;3.30;;;1.77;;
1136;SDS011;557;48.466;7.950;2023-05-10T10:56:07;2.53;;;2.33;;
1136;SDS011;557;48.466;7.950;2023-05-10T10:58:58;2.60;;;2.40;;
1136;SDS011;557;48.466;7.950;2023-05-10T11:01:48;3.20;;;3.00;;
1136;SDS011;557;48.466;7.950;2023-05-10T11:04:41;4.97;;;4.67;;
1136;SDS011;557;48.466;7.950;2023-05-10T11:07:33;3.20;;;3.00;;
1136;SDS011;557;48.466;7.950;2023-05-10T11:10:20;4.03;;;3.80;;
1136;SDS011;557;48.466;7.950;2023-05-10T11:13:09;3.27;;;3.07;;
1136;SDS011;557;48.466;7.950;2023-05-10T11:15:57;2.80;;;2.60;;
1136;SDS011;557;48.466;7.950;2023-05-10T11:18:56;4.60;;;4.30;;
1136;SDS011;557;48.466;7.950;2023-05-10T11:21:47;4.50;;;4.20;;
1136;SDS011;557;48.466;7.950;2023-05-10T11:24:37;4.50;;;4.30;;
1136;SDS011;557;48.466;7.950;2023-05-10T11:27:24;6.40;;;6.10;;
1136;SDS011;557;48.466;7.950;2023-05-10T11:30:12;7.57;;;7.17;;
1136;SDS011;557;48.466;7.950;2023-05-10T11:35:51;9.40;;;8.80;;
1136;SDS011;557;48.466;7.950;2023-05-10T11:38:39;8.30;;;8.00;;
1136;SDS011;557;48.466;7.950;2023-05-10T11:41:28;8.93;;;8.33;;
1136;SDS011;557;48.466;7.950;2023-05-10T11:44:16;8.60;;;8.20;;
1136;SDS011;557;48.466;7.950;2023-05-10T11:47:04;8.30;;;7.90;;
1136;SDS011;557;48.466;7.950;2023-05-10T11:49:52;8.87;;;8.50;;
1136;SDS011;557;48.466;7.950;2023-05-10T11:52:39;8.60;;;8.20;;
1136;SDS011;557;48.466;7.950;2023-05-10T11:55:27;8.60;;;8.20;;
1136;SDS011;557;48.466;7.950;2023-05-10T11:58:17;8.23;;;7.93;;
1136;SDS011;557;48.466;7.950;2023-05-10T12:01:07;8.47;;;8.07;;
1136;SDS011;557;48.466;7.950;2023-05-10T12:03:56;8.07;;;7.67;;
1136;SDS011;557;48.466;7.950;2023-05-10T12:06:45;8.30;;;7.90;;
1136;SDS011;557;48.466;7.950;2023-05-10T12:09:32;8.70;;;8.30;;
1136;SDS011;557;48.466;7.950;2023-05-10T12:12:20;9.10;;;8.60;;
1136;SDS011;557;48.466;7.950;2023-05-10T12:15:11;8.30;;;7.90;;
1136;SDS011;557;48.466;7.950;2023-05-10T12:17:59;8.80;;;8.40;;
1136;SDS011;557;48.466;7.950;2023-05-10T12:20:46;8.80;;;8.40;;
1136;SDS011;557;48.466;7.950;2023-05-10T12:23:34;9.47;;;8.97;;
1136;SDS011;557;48.466;7.950;2023-05-10T12:26:21;8.80;;;8.40;;
1136;SDS011;557;48.466;7.950;2023-05-10T12:29:13;8.93;;;8.47;;
1136;SDS011;557;48.466;7.950;2023-05-10T12:32:02;8.10;;;7.70;;
1136;SDS011;557;48.466;7.950;2023-05-10T12:34:51;8.00;;;7.70;;
1136;SDS011;557;48.466;7.950;2023-05-10T12:37:39;8.37;;;8.00;;
1136;SDS011;557;48.466;7.950;2023-05-10T12:40:27;8.80;;;8.40;;
1136;SDS011;557;48.466;7.950;2023-05-10T12:43:14;8.43;;;8.03;;
1136;SDS011;557;48.466;7.950;2023-05-10T12:46:05;8.40;;;7.87;;
1136;SDS011;557;48.466;7.950;2023-05-10T12:48:55;8.30;;;7.90;;
1136;SDS011;557;48.466;7.950;2023-05-10T12:51:42;7.10;;;6.77;;
1136;SDS011;557;48.466;7.950;2023-05-10T12:54:29;8.20;;;7.80;;
1136;SDS011;557;48.466;7.950;2023-05-10T12:57:17;8.00;;;7.60;;
1136;SDS011;557;48.466;7.950;2023-05-10T13:00:05;8.07;;;7.67;;
1136;SDS011;557;48.466;7.950;2023-05-10T13:02:53;8.00;;;7.60;;
1136;SDS011;557;48.466;7.950;2023-05-10T13:05:42;8.20;;;7.80;;
1136;SDS011;557;48.466;7.950;2023-05-10T13:08:29;7.80;;;7.50;;
1136;SDS011;557;48.466;7.950;2023-05-10T13:11:18;7.80;;;7.50;;
1136;SDS011;557;48.466;7.950;2023-05-10T13:14:06;7.67;;;7.27;;
1136;SDS011;557;48.466;7.950;2023-05-10T13:16:54;8.50;;;8.10;;
1136;SDS011;557;48.466;7.950;2023-05-10T13:19:41;8.47;;;8.07;;
1136;SDS011;557;48.466;7.950;2023-05-10T13:22:30;8.63;;;8.23;;
1136;SDS011;557;48.466;7.950;2023-05-10T13:25:17;9.33;;;8.90;;
1136;SDS011;557;48.466;7.950;2023-05-10T13:28:05;9.00;;;8.60;;
1136;SDS011;557;48.466;7.950;2023-05-10T13:30:52;9.13;;;8.73;;
1136;SDS011;557;48.466;7.950;2023-05-10T13:33:39;9.50;;;9.10;;
1136;SDS011;557;48.466;7.950;2023-05-10T13:36:27;9.47;;;9.07;;
1136;SDS011;557;48.466;7.950;2023-05-10T13:39:15;10.10;;;9.70;;
1136;SDS011;557;48.466;7.950;2023-05-10T13:45:10;10.20;;;9.80;;
1136;SDS011;557;48.466;7.950;2023-05-10T13:47:59;10.13;;;9.73;;
1136;SDS011;557;48.466;7.950;2023-05-10T13:50:46;10.00;;;9.60;;
1136;SDS011;557;48.466;7.950;2023-05-10T13:53:33;10.23;;;9.73;;
1136;SDS011;557;48.466;7.950;2023-05-10T13:56:22;10.60;;;10.20;;
1136;SDS011;557;48.466;7.950;2023-05-10T13:59:09;10.40;;;10.00;;
1136;SDS011;557;48.466;7.950;2023-05-10T14:01:57;10.30;;;9.90;;
1136;SDS011;557;48.466;7.950;2023-05-10T14:04:44;9.87;;;9.47;;
1136;SDS011;557;48.466;7.950;2023-05-10T14:07:32;10.10;;;9.70;;
1136;SDS011;557;48.466;7.950;2023-05-10T14:10:19;9.97;;;9.57;;
1136;SDS011;557;48.466;7.950;2023-05-10T14:13:08;10.00;;;9.60;;
1136;SDS011;557;48.466;7.950;2023-05-10T14:15:55;10.10;;;9.60;;
1136;SDS011;557;48.466;7.950;2023-05-10T14:18:44;9.30;;;8.90;;
1136;SDS011;557;48.466;7.950;2023-05-10T14:21:31;9.70;;;9.30;;
1136;SDS011;557;48.466;7.950;2023-05-10T14:24:18;12.90;;;12.10;;
1136;SDS011;557;48.466;7.950;2023-05-10T14:27:06;11.07;;;10.47;;
1136;SDS011;557;48.466;7.950;2023-05-10T14:29:54;9.40;;;9.00;;
1136;SDS011;557;48.466;7.950;2023-05-10T14:32:42;9.10;;;8.70;;
1136;SDS011;557;48.466;7.950;2023-05-10T14:35:29;9.07;;;8.67;;
1136;SDS011;557;48.466;7.950;2023-05-10T14:38:17;9.40;;;9.00;;
1136;SDS011;557;48.466;7.950;2023-05-10T14:41:04;10.10;;;9.70;;
1136;SDS011;557;48.466;7.950;2023-05-10T14:43:52;10.10;;;9.70;;
1136;SDS011;557;48.466;7.950;2023-05-10T14:46:41;10.60;;;10.20;;
1136;SDS011;557;48.466;7.950;2023-05-10T14:49:28;11.20;;;10.57;;
1136;SDS011;557;48.466;7.950;2023-05-10T14:52:15;9.90;;;9.50;;
1136;SDS011;557;48.466;7.950;2023-05-10T14:55:03;9.80;;;9.40;;
1136;SDS011;557;48.466;7.950;2023-05-10T14:57:51;9.50;;;9.10;;
1136;SDS011;557;48.466;7.950;2023-05-10T15:00:38;9.40;;;9.00;;
1136;SDS011;557;48.466;7.950;2023-05-10T15:03:29;9.03;;;8.63;;
1136;SDS011;557;48.466;7.950;2023-05-10T15:06:16;7.73;;;7.20;;
1136;SDS011;557;48.466;7.950;2023-05-10T15:09:09;5.07;;;4.77;;
1136;SDS011;557;48.466;7.950;2023-05-10T15:11:56;3.67;;;3.37;;
1136;SDS011;557;48.466;7.950;2023-05-10T15:14:43;3.50;;;3.30;;
1136;SDS011;557;48.466;7.950;2023-05-10T15:17:31;2.40;;;2.20;;
1136;SDS011;557;48.466;7.950;2023-05-10T15:20:20;2.93;;;2.73;;
1136;SDS011;557;48.466;7.950;2023-05-10T15:23:07;2.70;;;2.50;;
1136;SDS011;557;48.466;7.950;2023-05-10T15:25:54;2.33;;;2.13;;
1136;SDS011;557;48.466;7.950;2023-05-10T15:28:42;2.40;;;1.90;;
1136;SDS011;557;48.466;7.950;2023-05-10T15:31:29;2.33;;;2.13;;
1136;SDS011;557;48.466;7.950;2023-05-10T15:34:17;2.53;;;2.33;;
1136;SDS011;557;48.466;7.950;2023-05-10T15:37:06;2.17;;;1.97;;
1136;SDS011;557;48.466;7.950;2023-05-10T15:39:54;2.90;;;2.13;;
1136;SDS011;557;48.466;7.950;2023-05-10T15:42:47;2.40;;;2.20;;
1136;SDS011;557;48.466;7.950;2023-05-10T15:45:35;2.30;;;2.10;;
1136;SDS011;557;48.466;7.950;2023-05-10T15:48:22;2.80;;;2.60;;
1136;SDS011;557;48.466;7.950;2023-05-10T15:51:09;2.90;;;2.70;;
1136;SDS011;557;48.466;7.950;2023-05-10T15:53:58;3.30;;;3.10;;
1136;SDS011;557;48.466;7.950;2023-05-10T15:56:47;3.80;;;3.60;;
1136;SDS011;557;48.466;7.950;2023-05-10T15:59:34;3.73;;;3.53;;
1136;SDS011;557;48.466;7.950;2023-05-10T16:02:22;2.50;;;2.30;;
1136;SDS011;557;48.466;7.950;2023-05-10T16:05:09;2.00;;;1.80;;
1136;SDS011;557;48.466;7.950;2023-05-10T16:07:56;1.90;;;1.50;;
1136;SDS011;557;48.466;7.950;2023-05-10T16:10:45;1.63;;;1.40;;
1136;SDS011;557;48.466;7.950;2023-05-10T16:13:33;3.60;;;1.50;;
1136;SDS011;557;48.466;7.950;2023-05-10T16:16:20;2.17;;;1.23;;
1136;SDS011;557;48.466;7.950;2023-05-10T16:19:08;1.60;;;0.80;;
1136;SDS011;557;48.466;7.950;2023-05-10T16:21:55;1.50;;;0.80;;
1136;SDS011;557;48.466;7.950;2023-05-10T16:24:42;1.60;;;0.80;;
1136;SDS011;557;48.466;7.950;2023-05-10T16:27:31;1.70;;;0.77;;
1136;SDS011;557;48.466;7.950;2023-05-10T16:30:18;1.97;;;0.80;;
1136;SDS011;557;48.466;7.950;2023-05-10T16:33:06;2.50;;;0.90;;
1136;SDS011;557;48.466;7.950;2023-05-10T16:35:53;2.00;;;1.00;;
1136;SDS011;557;48.466;7.950;2023-05-10T16:38:40;1.50;;;0.90;;
1136;SDS011;557;48.466;7.950;2023-05-10T16:41:28;2.10;;;1.90;;
1136;SDS011;557;48.466;7.950;2023-05-10T16:44:19;5.07;;;4.88;;
1136;SDS011;557;48.466;7.950;2023-05-10T16:47:06;5.30;;;5.00;;
1136;SDS011;557;48.466;7.950;2023-05-10T16:49:54;4.90;;;4.63;;
1136;SDS011;557;48.466;7.950;2023-05-10T16:52:41;6.53;;;6.22;;
1136;SDS011;557;48.466;7.950;2023-05-10T16:55:28;6.70;;;6.40;;
1136;SDS011;557;48.466;7.950;2023-05-10T16:58:16;6.10;;;5.80;;
1136;SDS011;557;48.466;7.950;2023-05-10T17:01:04;7.13;;;6.73;;
1136;SDS011;557;48.466;7.950;2023-05-10T17:03:52;6.40;;;6.00;;
1136;SDS011;557;48.466;7.950;2023-05-10T17:06:39;6.57;;;6.13;;
1136;SDS011;557;48.466;7.950;2023-05-10T17:09:26;5.70;;;5.40;;
1136;SDS011;557;48.466;7.950;2023-05-10T17:12:14;4.70;;;4.50;;
1136;SDS011;557;48.466;7.950;2023-05-10T17:15:01;4.83;;;4.57;;
1136;SDS011;557;48.466;7.950;2023-05-10T17:17:50;4.83;;;4.53;;
1136;SDS011;557;48.466;7.950;2023-05-10T17:20:37;4.10;;;3.90;;
1136;SDS011;557;48.466;7.950;2023-05-10T17:23:24;3.30;;;3.10;;
1136;SDS011;557;48.466;7.950;2023-05-10T17:26:12;3.60;;;3.40;;
1136;SDS011;557;48.466;7.950;2023-05-10T17:28:59;3.80;;;3.60;;
1136;SDS011;557;48.466;7.950;2023-05-10T17:31:46;4.00;;;3.70;;
1136;SDS011;557;48.466;7.950;2023-05-10T17:34:35;3.57;;;3.37;;
1136;SDS011;557;48.466;7.950;2023-05-10T17:37:23;3.10;;;2.80;;
1136;SDS011;557;48.466;7.950;2023-05-10T17:40:11;2.70;;;2.50;;
1136;SDS011;557;48.466;7.950;2023-05-10T17:42:58;2.80;;;2.47;;
1136;SDS011;557;48.466;7.950;2023-05-10T17:45:46;2.73;;;2.53;;
1136;SDS011;557;48.466;7.950;2023-05-10T17:48:34;2.03;;;1.83;;
1136;SDS011;557;48.466;7.950;2023-05-10T17:51:23;2.20;;;2.00;;
1136;SDS011;557;48.466;7.950;2023-05-10T17:54:10;2.10;;;1.90;;
1136;SDS011;557;48.466;7.950;2023-05-10T17:56:57;1.93;;;1.73;;
1136;SDS011;557;48.466;7.950;2023-05-10T17:59:45;2.27;;;1.80;;
1136;SDS011;557;48.466;7.950;2023-05-10T18:02:33;2.83;;;1.43;;